< < Back
Terminal Aerodrome Forecast


Current Version              Previous Versions:   1  2  3  4  5  6  7  8  9  

Terminal Aerodrome Forecast

074
FTUS44 KMOB 291721
TAFPNS
TAF
KPNS 291721Z 2918/3018 13011KT P6SM FEW250
     FM291900 17010KT P6SM SCT040
     FM300900 17003KT 4SM BR SCT250
     FM301500 24011KT P6SM VCSH BKN025=



Latest METAR

343
SAUS70 KWBC 291700 RRA
MTRPNS
METAR KPNS 291653Z 13012KT 10SM FEW070 16/04 A3036 RMK AO2 SLP283
T01560044


USA.gov is the U.S. government's official web portal to all federal, state and local government web resources and services.